Time;durP1;ratioP1;P1;durP2;ratioP2;P2;SDS_P1;SDS_P2;PMS_P1;PMS_P2;Temp;Humidity;BMP_temperature;BMP_pressure;BME280_temperature;BME280_humidity;BME280_pressure;Samples;Min_cycle;Max_cycle;Signal;HPM_P1;HPM_P2
2023/06/29 00:00:34;;;;;;;6.30;1.77;;;16.80;99.90;;;15.64;100.00;97763.59;5024517;28;20057;-76
2023/06/29 00:03:01;;;;;;;4.25;1.98;;;16.80;99.90;;;15.58;100.00;97768.38;5044569;28;20523;-75
2023/06/29 00:05:28;;;;;;;6.05;2.05;;;16.80;99.90;;;15.68;100.00;97761.66;5040879;28;20624;-76
2023/06/29 00:07:58;;;;;;;8.40;1.85;;;16.80;99.90;;;15.58;100.00;97752.69;5043080;28;20459;-76
2023/06/29 00:10:25;;;;;;;5.40;1.40;;;16.70;99.90;;;15.64;100.00;97758.34;5043941;28;20063;-73
2023/06/29 00:12:54;;;;;;;6.20;1.60;;;16.70;99.90;;;15.50;100.00;97754.91;5038909;28;20151;-77
2023/06/29 00:15:21;;;;;;;8.80;1.98;;;16.60;99.90;;;15.54;100.00;97759.03;5039508;28;20647;-77
2023/06/29 00:17:48;;;;;;;5.68;1.83;;;16.60;99.90;;;15.18;100.00;97755.88;5042244;28;20059;-76
2023/06/29 00:20:16;;;;;;;4.10;1.52;;;16.50;99.90;;;15.24;100.00;97747.66;5025729;28;20141;-77
2023/06/29 00:22:47;;;;;;;7.63;2.00;;;16.40;99.90;;;15.10;100.00;97752.88;5058992;28;20136;-77
2023/06/29 00:25:16;;;;;;;5.38;1.98;;;16.40;99.90;;;15.25;100.00;97751.94;5041538;28;20184;-76
2023/06/29 00:27:44;;;;;;;5.70;1.85;;;16.40;99.90;;;15.43;100.00;97755.25;5041061;28;20068;-77
2023/06/29 00:30:13;;;;;;;4.85;2.17;;;16.40;99.90;;;15.34;100.00;97747.13;5038819;28;20481;-77
2023/06/29 00:32:40;;;;;;;3.42;1.65;;;16.40;99.90;;;15.39;100.00;97743.28;5040131;28;20052;-76
2023/06/29 00:35:07;;;;;;;7.07;1.90;;;16.40;99.90;;;15.29;100.00;97754.41;5043819;28;20057;-76
2023/06/29 00:37:34;;;;;;;4.40;2.10;;;16.40;99.90;;;15.21;100.00;97752.22;5028963;28;20048;-75
2023/06/29 00:40:03;;;;;;;4.80;2.03;;;16.20;99.90;;;15.04;100.00;97756.66;5044528;28;20084;-76
2023/06/29 00:42:29;;;;;;;9.93;2.25;;;16.00;99.90;;;14.87;100.00;97759.44;5040888;28;20049;-76
2023/06/29 00:44:56;;;;;;;5.00;2.35;;;15.90;99.90;;;14.92;100.00;97756.56;5044641;28;20159;-76
2023/06/29 00:47:24;;;;;;;6.28;1.83;;;15.90;99.90;;;14.91;100.00;97760.91;5044392;28;20132;-76
2023/06/29 00:49:52;;;;;;;6.38;2.08;;;15.80;99.90;;;14.90;100.00;97755.78;5025586;28;20040;-76
2023/06/29 00:52:19;;;;;;;5.05;2.20;;;15.90;99.90;;;14.85;100.00;97751.66;5025249;28;20045;-76
2023/06/29 00:54:46;;;;;;;7.93;1.92;;;15.90;99.90;;;14.84;100.00;97755.19;5028341;28;20597;-77
2023/06/29 00:57:13;;;;;;;3.78;1.95;;;16.00;99.90;;;14.86;100.00;97757.72;5001047;28;1258770;-76
2023/06/29 00:59:41;;;;;;;5.97;2.47;;;16.00;99.90;;;14.95;100.00;97751.13;5043422;28;20056;-76
2023/06/29 01:02:09;;;;;;;4.63;1.80;;;16.00;99.90;;;14.66;100.00;97760.63;5048829;28;20041;-76
2023/06/29 01:04:37;;;;;;;3.88;1.92;;;15.90;99.90;;;14.76;100.00;97759.19;5031391;28;20127;-77
2023/06/29 01:07:16;;;;;;;6.63;2.40;;;15.90;99.90;;;14.91;100.00;97763.53;5047204;28;20040;-76
2023/06/29 01:09:46;;;;;;;4.35;1.80;;;15.90;99.90;;;14.80;100.00;97760.69;5044165;28;20049;-76
2023/06/29 01:12:15;;;;;;;6.00;2.08;;;15.90;99.90;;;14.89;100.00;97759.31;5025238;28;20053;-76
2023/06/29 01:14:44;;;;;;;5.25;2.10;;;15.90;99.90;;;14.76;100.00;97761.81;5048156;28;20053;-76
2023/06/29 01:17:18;;;;;;;4.25;1.77;;;15.90;99.90;;;14.71;100.00;97755.97;5041329;28;20543;-76
2023/06/29 01:19:49;;;;;;;5.55;2.00;;;15.80;99.90;;;14.71;100.00;97751.63;5030762;28;20049;-77
2023/06/29 01:22:43;;;;;;;3.75;1.80;;;15.80;99.90;;;14.57;100.00;97744.56;5024218;28;20045;-77
2023/06/29 01:25:12;;;;;;;4.82;1.73;;;15.70;99.90;;;14.60;100.00;97751.38;5027468;28;20559;-76
2023/06/29 01:27:43;;;;;;;5.35;1.95;;;15.70;99.90;;;14.59;100.00;97747.06;5043710;28;20045;-76
2023/06/29 01:30:11;;;;;;;4.97;1.92;;;15.70;99.90;;;14.50;100.00;97748.38;5047309;28;20037;-76
2023/06/29 01:32:39;;;;;;;4.60;2.13;;;15.70;99.90;;;14.36;100.00;97753.53;5047034;28;20041;-77
2023/06/29 01:35:09;;;;;;;7.28;2.35;;;15.70;99.90;;;14.30;100.00;97756.47;5061427;28;20085;-76
2023/06/29 01:37:59;;;;;;;10.52;2.13;;;15.60;99.90;;;14.15;100.00;97758.16;5045408;28;20426;-76
2023/06/29 01:40:29;;;;;;;4.65;2.17;;;15.40;99.90;;;14.00;100.00;97765.91;5045199;28;20051;-76
2023/06/29 01:42:57;;;;;;;7.22;2.50;;;15.40;99.90;;;13.93;100.00;97776.72;5030590;28;20049;-77
2023/06/29 01:45:25;;;;;;;6.85;1.85;;;15.30;99.90;;;14.16;100.00;97775.50;5027998;28;20059;-77
2023/06/29 01:47:54;;;;;;;3.78;2.17;;;15.30;99.90;;;14.24;100.00;97770.72;5029673;28;20103;-76
2023/06/29 01:50:22;;;;;;;5.05;2.10;;;15.30;99.90;;;14.38;100.00;97767.34;5045817;28;20092;-76
2023/06/29 01:52:49;;;;;;;5.93;1.85;;;15.40;99.90;;;14.36;100.00;97749.16;5028548;28;20131;-76
2023/06/29 01:55:16;;;;;;;4.85;2.03;;;15.40;99.90;;;14.14;100.00;97751.25;5042679;28;20060;-75
2023/06/29 01:57:43;;;;;;;3.88;1.60;;;15.30;99.90;;;14.32;100.00;97747.66;5044855;28;20045;-77
2023/06/29 02:00:12;;;;;;;7.15;2.03;;;15.30;99.90;;;14.17;100.00;97738.88;5059069;28;20084;-76
2023/06/29 02:02:39;;;;;;;6.32;2.03;;;15.30;99.90;;;14.20;100.00;97738.69;5045285;28;20091;-77
2023/06/29 02:05:07;;;;;;;4.63;2.08;;;15.30;99.90;;;14.11;100.00;97741.81;5046231;28;20053;-75
2023/06/29 02:07:35;;;;;;;7.68;2.20;;;15.30;99.90;;;14.14;100.00;97746.03;5044652;28;20049;-77
2023/06/29 02:10:02;;;;;;;6.47;1.80;;;15.30;99.90;;;14.16;100.00;97752.88;5047556;28;20052;-77
2023/06/29 02:12:30;;;;;;;3.40;1.52;;;15.30;99.90;;;14.17;100.00;97751.94;5043884;28;20126;-76
2023/06/29 02:14:58;;;;;;;4.22;2.10;;;15.30;99.90;;;14.18;100.00;97752.78;5046759;28;20119;-76
2023/06/29 02:17:25;;;;;;;7.65;2.10;;;15.30;99.90;;;14.10;100.00;97747.97;5046721;28;20049;-76
2023/06/29 02:19:52;;;;;;;4.80;1.92;;;15.30;99.90;;;14.12;100.00;97743.50;5042697;28;20045;-76
2023/06/29 02:22:19;;;;;;;8.88;2.15;;;15.30;99.90;;;14.10;100.00;97741.91;5040650;28;20740;-76
2023/06/29 02:24:46;;;;;;;4.95;1.70;;;15.20;99.90;;;14.02;100.00;97737.09;5042875;28;20044;-76
2023/06/29 02:27:16;;;;;;;6.00;2.10;;;15.20;99.90;;;13.74;100.00;97746.41;5028188;28;20131;-76
2023/06/29 02:29:44;;;;;;;3.80;1.40;;;15.10;99.90;;;13.85;100.00;97745.00;5042839;28;20079;-76
2023/06/29 02:32:12;;;;;;;9.07;1.65;;;15.00;99.90;;;13.83;100.00;97742.47;5044715;28;20048;-76
2023/06/29 02:34:40;;;;;;;3.58;1.70;;;15.00;99.90;;;13.96;100.00;97742.66;5043430;28;20045;-75
2023/06/29 02:37:07;;;;;;;4.43;1.90;;;15.00;99.90;;;14.07;100.00;97742.94;5057421;28;20481;-75
2023/06/29 02:39:34;;;;;;;4.55;2.03;;;15.00;99.90;;;14.01;100.00;97745.88;5045063;28;20144;-75
2023/06/29 02:42:01;;;;;;;4.68;2.13;;;15.10;99.90;;;14.17;100.00;97740.66;5044136;28;20198;-76
2023/06/29 02:44:28;;;;;;;3.78;2.25;;;15.10;99.90;;;14.17;100.00;97733.66;5044110;28;20085;-76
2023/06/29 02:46:55;;;;;;;5.68;1.90;;;15.20;99.90;;;14.16;100.00;97732.00;5045013;28;20151;-76
2023/06/29 02:49:22;;;;;;;5.10;2.35;;;15.20;99.90;;;14.12;100.00;97733.06;5045443;28;20054;-76
2023/06/29 02:51:50;;;;;;;5.20;1.83;;;15.10;99.90;;;14.05;100.00;97738.69;5058093;28;20053;-77
2023/06/29 02:54:17;;;;;;;4.90;1.73;;;15.10;99.90;;;13.91;100.00;97729.88;5044250;28;20098;-76
2023/06/29 02:56:44;;;;;;;3.70;1.73;;;15.10;99.90;;;13.92;100.00;97728.09;5042319;28;20111;-75
2023/06/29 02:59:11;;;;;;;3.92;1.65;;;15.10;99.90;;;13.90;100.00;97730.78;5026848;28;20135;-76
2023/06/29 03:01:38;;;;;;;7.20;2.00;;;15.10;99.90;;;13.69;100.00;97735.38;5036538;28;20049;-76
2023/06/29 03:04:06;;;;;;;6.82;2.10;;;14.90;99.90;;;13.97;100.00;97739.94;5044176;28;20083;-76
2023/06/29 03:06:33;;;;;;;4.65;2.25;;;14.90;99.90;;;13.88;100.00;97731.78;5040521;28;20122;-75
2023/06/29 03:09:04;;;;;;;3.35;1.92;;;15.00;99.90;;;13.94;100.00;97721.84;5025089;28;20064;-76
2023/06/29 03:11:31;;;;;;;4.97;1.70;;;15.00;99.90;;;14.14;100.00;97726.00;5042532;28;20052;-76
2023/06/29 03:13:58;;;;;;;3.78;1.70;;;15.10;99.90;;;14.21;100.00;97719.53;5041909;28;20132;-75
2023/06/29 03:16:25;;;;;;;5.00;1.67;;;15.10;99.90;;;14.26;100.00;97721.03;5042423;28;20123;-75
2023/06/29 03:18:52;;;;;;;5.63;1.73;;;15.20;99.90;;;14.29;100.00;97718.25;5028311;28;20060;-76
2023/06/29 03:21:20;;;;;;;4.90;1.83;;;15.30;99.90;;;14.14;100.00;97719.91;5041600;28;20136;-76
2023/06/29 03:23:47;;;;;;;6.18;2.70;;;15.20;99.90;;;14.05;100.00;97723.03;5027390;28;20136;-76
2023/06/29 03:26:14;;;;;;;4.75;2.08;;;15.20;99.90;;;14.34;100.00;97724.06;5046511;28;20419;-76
2023/06/29 03:28:42;;;;;;;6.10;2.17;;;15.20;99.90;;;14.19;100.00;97728.38;5026878;28;20045;-76
2023/06/29 03:31:09;;;;;;;5.32;1.85;;;15.20;99.90;;;14.11;100.00;97725.31;5043815;28;20695;-76
2023/06/29 03:33:36;;;;;;;5.93;2.10;;;15.20;99.90;;;14.10;100.00;97721.88;5043612;28;20053;-76
2023/06/29 03:36:04;;;;;;;5.35;2.38;;;15.20;99.90;;;14.19;100.00;97717.91;5041635;28;20080;-74
2023/06/29 03:38:31;;;;;;;3.60;1.70;;;15.20;99.90;;;14.14;100.00;97722.53;5043174;28;20056;-76
2023/06/29 03:40:58;;;;;;;4.30;1.77;;;15.20;99.90;;;14.29;100.00;97715.63;5041676;28;20140;-75
2023/06/29 03:43:25;;;;;;;7.13;2.20;;;15.30;99.90;;;14.39;100.00;97714.19;5042772;28;20080;-75
2023/06/29 03:45:52;;;;;;;6.25;2.30;;;15.30;99.90;;;14.34;100.00;97713.59;5043600;28;20048;-76
2023/06/29 03:48:22;;;;;;;4.55;1.75;;;15.30;99.90;;;14.28;100.00;97706.97;5044527;28;20135;-76
2023/06/29 03:50:49;;;;;;;4.00;2.05;;;15.30;99.90;;;14.35;100.00;97717.91;5045026;28;20403;-76
2023/06/29 03:53:17;;;;;;;3.70;1.65;;;15.30;99.90;;;14.38;100.00;97715.13;5043068;28;20052;-76
2023/06/29 03:55:44;;;;;;;3.38;1.88;;;15.30;99.90;;;14.40;100.00;97711.50;5025071;28;20099;-77
2023/06/29 03:58:11;;;;;;;4.88;1.88;;;15.40;99.90;;;14.24;100.00;97705.44;5026005;28;20056;-76
2023/06/29 04:00:38;;;;;;;4.65;1.67;;;15.30;99.90;;;14.22;100.00;97709.91;5041709;28;20202;-75
2023/06/29 04:03:06;;;;;;;5.80;1.83;;;15.30;99.90;;;14.05;100.00;97713.47;5040210;28;20091;-76
2023/06/29 04:05:33;;;;;;;7.68;2.33;;;15.20;99.90;;;14.05;100.00;97716.06;5044916;28;20498;-76
2023/06/29 04:08:05;;;;;;;12.45;2.15;;;15.20;99.90;;;14.12;100.00;97706.13;5043114;28;20076;-76
2023/06/29 04:10:33;;;;;;;6.23;2.07;;;15.20;99.90;;;14.20;100.00;97712.59;5043452;28;21536;-76
2023/06/29 04:13:00;;;;;;;4.88;2.10;;;15.20;99.90;;;14.22;100.00;97713.34;5044067;28;20387;-75
2023/06/29 04:15:28;;;;;;;6.18;2.15;;;15.20;99.90;;;14.20;100.00;97699.53;5028320;28;20099;-77
2023/06/29 04:17:55;;;;;;;7.78;1.98;;;15.20;99.90;;;14.45;100.00;97700.78;5045608;28;20040;-76
2023/06/29 04:20:22;;;;;;;3.83;1.58;;;15.30;99.90;;;14.54;100.00;97697.69;5031476;28;20140;-77
2023/06/29 04:22:52;;;;;;;4.38;2.10;;;15.30;99.90;;;14.54;100.00;97692.47;5048795;28;20045;-77
2023/06/29 04:25:19;;;;;;;8.57;2.00;;;15.40;99.90;;;14.49;100.00;97683.19;5046725;28;20545;-77
2023/06/29 04:27:46;;;;;;;5.10;2.22;;;15.40;99.90;;;14.57;100.00;97681.88;5044191;28;20062;-76
2023/06/29 04:30:17;;;;;;;9.65;2.95;;;15.40;99.90;;;14.29;100.00;97687.75;5030143;28;20122;-75
2023/06/29 04:32:48;;;;;;;4.30;1.85;;;15.40;99.90;;;14.32;100.00;97692.81;5048623;28;20048;-77
2023/06/29 04:35:16;;;;;;;5.70;2.05;;;15.30;99.90;;;14.49;100.00;97691.03;5049262;28;20464;-77
2023/06/29 04:37:43;;;;;;;4.22;2.25;;;15.30;99.90;;;14.49;100.00;97694.47;5049641;28;20049;-77
2023/06/29 04:40:14;;;;;;;4.32;1.70;;;15.40;99.90;;;14.60;100.00;97688.69;5031372;28;20048;-77
2023/06/29 04:42:45;;;;;;;5.10;2.30;;;15.50;99.90;;;14.60;100.00;97686.91;5045601;28;20040;-77
2023/06/29 04:45:20;;;;;;;4.85;2.20;;;15.50;99.90;;;14.59;100.00;97687.81;5047084;28;20091;-77
2023/06/29 04:47:51;;;;;;;5.00;2.03;;;15.50;99.90;;;14.69;100.00;97693.38;5044727;28;20769;-77
2023/06/29 04:50:25;;;;;;;7.00;2.40;;;15.50;99.90;;;14.78;100.00;97695.47;5042778;28;20124;-75
2023/06/29 04:52:58;;;;;;;8.85;1.83;;;15.60;99.90;;;15.00;100.00;97699.44;5029548;28;20045;-76
2023/06/29 04:55:25;;;;;;;5.50;2.20;;;15.70;99.90;;;15.12;100.00;97690.88;5030263;28;20107;-76
2023/06/29 04:57:52;;;;;;;6.95;2.40;;;15.80;99.90;;;15.58;100.00;97689.88;5040828;28;20163;-77
2023/06/29 05:00:20;;;;;;;3.65;1.95;;;16.00;99.90;;;15.82;100.00;97677.91;5031458;28;20130;-77
2023/06/29 05:02:47;;;;;;;3.60;1.73;;;16.20;99.90;;;15.86;100.00;97675.97;5048008;28;20048;-77
2023/06/29 05:05:14;;;;;;;6.20;2.67;;;16.20;99.90;;;15.44;100.00;97669.78;5059984;28;20567;-77
2023/06/29 05:07:41;;;;;;;6.20;2.40;;;16.30;99.90;;;15.86;100.00;97661.09;5029611;28;20049;-77
2023/06/29 05:10:09;;;;;;;7.28;2.65;;;16.40;99.90;;;15.92;100.00;97659.03;5047704;28;20098;-77
2023/06/29 05:12:36;;;;;;;5.32;2.17;;;16.50;99.90;;;16.22;100.00;97656.25;5048985;28;20087;-77
2023/06/29 05:15:04;;;;;;;4.03;2.25;;;16.70;99.90;;;16.66;100.00;97639.41;5050323;28;20049;-77
2023/06/29 05:17:31;;;;;;;5.38;2.45;;;16.90;99.90;;;16.96;100.00;97646.19;5036288;28;20045;-77
2023/06/29 05:20:04;;;;;;;4.82;1.90;;;17.20;99.90;;;17.19;100.00;97640.22;5051726;28;20041;-77
2023/06/29 05:22:31;;;;;;;9.57;2.58;;;17.40;99.90;;;17.04;100.00;97639.50;5046383;28;20044;-77
2023/06/29 05:24:59;;;;;;;7.72;2.50;;;17.60;99.90;;;17.01;100.00;97638.84;5057262;28;20060;-78
2023/06/29 05:27:25;;;;;;;7.93;2.13;;;17.60;99.90;;;17.56;100.00;97638.53;5054563;28;20052;-76
2023/06/29 05:29:53;;;;;;;4.82;1.83;;;17.80;99.90;;;17.79;100.00;97625.56;5051718;28;20052;-78
2023/06/29 05:32:20;;;;;;;3.55;1.98;;;18.00;99.90;;;18.06;100.00;97629.81;5054909;28;20075;-76
2023/06/29 05:34:47;;;;;;;3.40;1.73;;;18.30;99.90;;;18.68;100.00;97618.25;5056545;28;20547;-78
2023/06/29 05:37:14;;;;;;;3.90;1.90;;;18.50;99.90;;;18.78;100.00;97603.50;5039385;28;20545;-77
2023/06/29 05:39:41;;;;;;;2.90;1.38;;;18.90;99.90;;;19.21;100.00;97608.13;5052474;28;20044;-78
2023/06/29 05:42:08;;;;;;;5.85;1.95;;;19.10;99.90;;;18.93;100.00;97604.13;5038748;28;20117;-77
2023/06/29 05:44:36;;;;;;;6.22;1.90;;;19.20;99.90;;;18.83;100.00;97609.25;5054240;28;20044;-77
2023/06/29 05:47:07;;;;;;;4.65;2.33;;;19.40;99.90;;;18.68;100.00;97599.84;5055081;28;20057;-77
2023/06/29 05:49:36;;;;;;;4.47;2.00;;;19.40;99.90;;;18.80;100.00;97599.81;5066309;28;20127;-77
2023/06/29 05:52:03;;;;;;;4.38;1.85;;;19.40;99.90;;;19.14;100.00;97593.75;5048708;28;20072;-77
2023/06/29 05:54:30;;;;;;;2.42;1.30;;;19.40;99.90;;;19.49;100.00;97592.81;5047719;28;20088;-76
2023/06/29 05:56:57;;;;;;;3.83;1.50;;;19.50;99.90;;;19.64;100.00;97583.69;5068545;28;20045;-77
2023/06/29 05:59:24;;;;;;;5.43;1.65;;;19.80;99.90;;;19.73;100.00;97582.13;5052529;28;20500;-76
2023/06/29 06:01:52;;;;;;;7.30;1.92;;;19.90;99.90;;;19.61;100.00;97590.06;5053731;28;20045;-77
2023/06/29 06:04:19;;;;;;;3.50;1.48;;;20.00;99.90;;;19.90;100.00;97583.44;5035223;28;20121;-77
2023/06/29 06:06:47;;;;;;;6.68;1.83;;;20.00;99.90;;;19.70;100.00;97585.84;5053820;28;20048;-77
2023/06/29 06:09:14;;;;;;;3.83;1.70;;;20.10;99.90;;;19.75;100.00;97580.22;5048843;28;20225;-77
2023/06/29 06:11:41;;;;;;;5.03;1.40;;;20.30;99.90;;;20.12;100.00;97575.47;5053540;28;20094;-77
2023/06/29 06:14:08;;;;;;;4.10;1.52;;;20.30;99.90;;;20.54;100.00;97577.31;5050282;28;20521;-77
2023/06/29 06:16:35;;;;;;;5.32;1.50;;;20.40;99.90;;;20.32;100.00;97563.31;5052937;28;20041;-78
2023/06/29 06:19:03;;;;;;;4.80;1.50;;;20.50;99.90;;;20.72;100.00;97575.00;5038216;28;20041;-77
2023/06/29 06:21:30;;;;;;;7.55;1.33;;;20.60;99.90;;;20.73;100.00;97574.00;5048046;28;20049;-77
2023/06/29 06:23:58;;;;;;;6.78;1.52;;;20.80;99.90;;;20.62;100.00;97573.13;5053112;28;20045;-77
2023/06/29 06:26:25;;;;;;;6.03;1.33;;;20.90;99.90;;;21.08;100.00;97566.59;5056439;28;20116;-77
2023/06/29 06:28:54;;;;;;;5.18;1.95;;;20.90;99.90;;;20.80;100.00;97567.25;5054693;28;20071;-78
2023/06/29 06:31:22;;;;;;;8.10;1.80;;;21.00;99.90;;;20.95;100.00;97570.41;5070368;28;20053;-78
2023/06/29 06:33:59;;;;;;;6.38;2.20;;;21.00;99.90;;;21.15;100.00;97566.06;5055192;28;20052;-77
2023/06/29 06:36:30;;;;;;;7.70;1.90;;;21.00;99.90;;;21.21;100.00;97562.88;5055963;28;20048;-77
2023/06/29 06:38:59;;;;;;;2.97;1.40;;;21.20;99.90;;;21.15;100.00;97566.06;5040824;28;20052;-78
2023/06/29 06:41:27;;;;;;;7.82;1.45;;;21.30;99.90;;;20.91;100.00;97566.34;5057874;28;20099;-77
2023/06/29 06:43:57;;;;;;;3.45;1.35;;;21.40;99.90;;;21.36;100.00;97566.84;5056745;28;20816;-78
2023/06/29 06:46:24;;;;;;;4.28;1.10;;;21.40;99.90;;;21.36;100.00;97566.00;5036133;28;20087;-78
2023/06/29 06:48:52;;;;;;;4.65;1.30;;;21.30;99.90;;;21.55;100.00;97567.91;5057069;28;20076;-78
2023/06/29 06:51:19;;;;;;;2.85;1.40;;;21.30;99.90;;;21.33;100.00;97569.75;5055539;28;20045;-78
2023/06/29 06:53:46;;;;;;;6.28;1.42;;;21.40;99.90;;;21.40;100.00;97572.69;5058322;28;20118;-77
2023/06/29 06:56:13;;;;;;;5.07;1.48;;;21.50;99.90;;;21.37;100.00;97565.03;5056317;28;20098;-78
2023/06/29 06:58:42;;;;;;;5.90;1.73;;;21.60;99.90;;;21.69;100.00;97575.44;5054536;28;20045;-78
2023/06/29 07:01:09;;;;;;;7.38;1.17;;;21.60;99.90;;;21.45;100.00;97563.44;5056082;28;20126;-78
2023/06/29 07:03:36;;;;;;;4.15;1.30;;;21.60;99.90;;;21.47;100.00;97576.50;5057875;28;20147;-78
2023/06/29 07:06:03;;;;;;;3.72;1.42;;;21.70;99.90;;;21.78;100.00;97581.72;5039261;28;20049;-78
2023/06/29 07:08:32;;;;;;;7.18;1.30;;;21.90;99.90;;;21.88;100.00;97577.31;5058409;28;20202;-76
2023/06/29 07:10:59;;;;;;;4.88;1.27;;;22.10;99.90;;;21.92;100.00;97573.44;5055605;28;20460;-77
2023/06/29 07:13:27;;;;;;;5.75;1.35;;;22.30;99.90;;;22.09;100.00;97571.91;5037849;28;20109;-77
2023/06/29 07:15:55;;;;;;;4.82;1.15;;;22.20;99.90;;;22.27;100.00;97566.81;5032401;28;20092;-78
2023/06/29 07:18:22;;;;;;;2.78;1.33;;;22.10;99.90;;;22.40;100.00;97572.66;5057427;28;20091;-78
2023/06/29 07:20:50;;;;;;;4.40;1.40;;;22.20;99.90;;;22.13;100.00;97573.31;5069209;28;20075;-78
2023/06/29 07:23:20;;;;;;;5.45;1.55;;;22.40;99.90;;;22.62;100.00;97570.69;5059360;28;20134;-77
2023/06/29 07:25:50;;;;;;;4.82;1.75;;;22.80;99.90;;;22.54;100.00;97572.22;5054510;28;20233;-78
2023/06/29 07:28:17;;;;;;;3.83;1.85;;;22.90;99.90;;;22.75;100.00;97577.34;5054123;28;20479;-76
2023/06/29 07:30:45;;;;;;;5.50;1.48;;;23.00;99.90;;;22.94;100.00;97570.34;5057773;28;20045;-78
2023/06/29 07:33:12;;;;;;;7.78;1.98;;;23.10;99.90;;;23.36;100.00;97573.44;5053248;28;20119;-78
2023/06/29 07:35:40;;;;;;;5.50;1.50;;;23.20;99.90;;;23.58;100.00;97564.28;5042778;28;20048;-78
2023/06/29 07:38:08;;;;;;;5.63;1.77;;;23.50;99.90;;;23.58;100.00;97560.78;5057642;28;20048;-76
2023/06/29 07:40:37;;;;;;;12.35;1.95;;;23.70;99.90;;;23.48;100.00;97571.44;5037569;28;20053;-75
2023/06/29 07:43:04;;;;;;;4.07;1.35;;;23.70;99.90;;;23.73;100.00;97563.78;5050441;28;20041;-78
2023/06/29 07:45:31;;;;;;;4.72;1.67;;;23.80;99.90;;;23.76;100.00;97563.50;5052317;28;20053;-78
2023/06/29 07:47:58;;;;;;;3.35;1.20;;;23.90;99.90;;;23.65;100.00;97561.03;5052696;28;20107;-79
2023/06/29 07:50:25;;;;;;;3.58;1.20;;;24.10;99.90;;;24.01;100.00;97561.97;5038462;28;20053;-78
2023/06/29 07:52:53;;;;;;;5.05;1.52;;;24.10;99.90;;;23.80;100.00;97560.41;5056651;28;20049;-77
2023/06/29 07:55:20;;;;;;;6.43;1.38;;;24.10;99.90;;;23.52;100.00;97561.41;5051974;28;20053;-78
2023/06/29 07:57:47;;;;;;;3.85;1.50;;;24.10;99.90;;;23.21;100.00;97568.78;5047461;28;20136;-77
2023/06/29 08:00:18;;;;;;;5.55;1.45;;;24.00;99.90;;;23.05;100.00;97562.25;5039580;28;20126;-77
2023/06/29 08:02:45;;;;;;;4.97;1.63;;;23.90;99.90;;;23.01;100.00;97562.69;5066988;28;20069;-77
2023/06/29 08:05:13;;;;;;;6.75;2.13;;;23.70;99.90;;;23.15;100.00;97562.25;5053493;28;20107;-75
2023/06/29 08:07:43;;;;;;;5.75;1.95;;;23.60;99.90;;;22.97;100.00;97562.97;5050631;28;20560;-78
2023/06/29 08:10:12;;;;;;;6.85;1.90;;;23.50;99.90;;;23.28;100.00;97559.25;5050488;28;20052;-77
2023/06/29 08:12:39;;;;;;;6.63;1.92;;;23.60;99.90;;;23.25;100.00;97549.81;5054128;28;20083;-80
2023/06/29 08:15:06;;;;;;;3.70;1.77;;;23.70;99.90;;;23.54;100.00;97556.78;5052832;28;20077;-78
2023/06/29 08:17:34;;;;;;;5.20;1.75;;;23.70;99.90;;;23.56;100.00;97549.50;5050735;28;20056;-80
2023/06/29 08:20:01;;;;;;;5.18;1.73;;;23.80;99.90;;;23.69;100.00;97555.28;5051053;28;20079;-79
2023/06/29 08:22:28;;;;;;;5.13;1.60;;;24.00;99.90;;;23.68;100.00;97555.47;5071633;28;20060;-79
2023/06/29 08:24:55;;;;;;;4.43;1.60;;;24.00;99.90;;;24.03;100.00;97553.88;5051848;28;20447;-78
2023/06/29 08:27:22;;;;;;;5.38;1.67;;;24.10;99.90;;;24.14;100.00;97556.28;5051450;28;20124;-78
2023/06/29 08:29:52;;;;;;;8.25;1.80;;;;;;;24.29;100.00;97553.94;5052597;28;20045;-79
2023/06/29 08:32:19;;;;;;;5.03;1.58;;;24.30;99.90;;;24.49;100.00;97555.47;5038632;28;20549;-79
2023/06/29 08:34:46;;;;;;;7.43;1.70;;;24.50;99.90;;;24.40;100.00;97545.75;5038672;28;20079;-76
2023/06/29 08:37:13;;;;;;;4.28;1.65;;;24.50;99.90;;;24.65;100.00;97548.63;5054495;28;20053;-77
2023/06/29 08:39:41;;;;;;;4.93;1.40;;;24.70;99.90;;;24.51;100.00;97542.88;5051357;28;20098;-78
2023/06/29 08:42:08;;;;;;;4.43;1.58;;;24.70;99.90;;;24.67;100.00;97552.78;5036529;28;20052;-78
2023/06/29 08:44:36;;;;;;;7.30;2.03;;;24.70;99.90;;;24.42;100.00;97547.25;5035042;28;20057;-78
2023/06/29 08:47:05;;;;;;;30.20;3.80;;;24.90;99.90;;;24.57;100.00;97539.63;5053876;28;20087;-78
2023/06/29 08:49:38;;;;;;;37.10;5.78;;;25.00;99.90;;;25.18;100.00;97537.88;5054525;28;20127;-79
2023/06/29 08:52:11;;;;;;;23.98;3.35;;;25.20;99.90;;;25.11;100.00;97533.31;5034356;28;20052;-79
2023/06/29 08:54:39;;;;;;;11.25;1.92;;;25.50;99.90;;;25.05;100.00;97534.78;5058133;28;20061;-78
2023/06/29 08:57:07;;;;;;;4.10;1.40;;;25.60;99.90;;;25.39;100.00;97523.38;5054141;28;20053;-79
2023/06/29 08:59:37;;;;;;;3.85;1.13;;;25.80;99.90;;;25.44;100.00;97527.19;5056168;28;20063;-78
2023/06/29 09:02:05;;;;;;;2.65;1.00;;;25.90;99.90;;;25.35;100.00;97519.34;5061163;28;20166;-79
2023/06/29 09:04:33;;;;;;;5.15;1.45;;;25.80;99.90;;;25.31;100.00;97524.13;5061189;28;20412;-79
2023/06/29 09:07:03;;;;;;;2.60;0.98;;;25.70;99.90;;;25.81;100.00;97525.13;5039097;28;20041;-77
2023/06/29 09:09:33;;;;;;;3.85;1.27;;;25.60;99.90;;;25.79;100.00;97525.28;5058481;28;20045;-78
2023/06/29 09:12:00;;;;;;;5.43;1.17;;;25.60;99.90;;;25.93;100.00;97517.72;5040388;28;20049;-77
2023/06/29 09:14:35;;;;;;;6.15;1.23;;;26.00;99.90;;;25.68;100.00;97525.59;5053575;28;20180;-78
2023/06/29 09:17:15;;;;;;;4.15;1.30;;;26.30;99.90;;;25.95;100.00;97521.88;5072528;28;20497;-79
2023/06/29 09:20:13;;;;;;;2.85;1.08;;;26.40;99.90;;;25.95;100.00;97521.88;5056842;28;20484;-77
2023/06/29 09:22:40;;;;;;;4.75;1.25;;;26.10;99.00;;;25.41;100.00;97530.19;5057100;28;20450;-78
2023/06/29 09:25:10;;;;;;;3.25;1.27;;;25.90;99.70;;;25.76;100.00;97525.63;5037521;28;20045;-78
2023/06/29 09:28:05;;;;;;;3.58;1.15;;;25.60;99.70;;;25.73;100.00;97523.31;5072152;28;20080;-78
2023/06/29 09:30:38;;;;;;;4.05;1.20;;;25.60;99.00;;;24.96;100.00;97520.63;5058440;28;20049;-78
2023/06/29 09:33:25;;;;;;;3.65;1.00;;;25.80;98.40;;;25.78;100.00;97515.66;5059300;28;20488;-76
2023/06/29 09:35:53;;;;;;;5.60;1.35;;;25.80;99.00;;;25.99;100.00;97517.06;5061420;28;20052;-78
2023/06/29 09:38:22;;;;;;;3.53;1.25;;;26.10;99.90;;;25.45;100.00;97526.22;5058830;28;20063;-79
2023/06/29 09:40:55;;;;;;;2.38;1.10;;;26.10;98.40;;;25.49;100.00;97525.88;5040483;28;20099;-77
2023/06/29 09:43:28;;;;;;;3.25;1.05;;;26.00;97.90;;;25.53;100.00;97520.09;5053521;28;20052;-77
2023/06/29 09:46:09;;;;;;;3.85;1.00;;;25.80;99.30;;;25.82;100.00;97516.19;5036567;28;20053;-78
2023/06/29 09:48:47;;;;;;;4.00;1.05;;;25.20;97.80;;;25.76;100.00;97512.34;5058909;28;21036;-77
2023/06/29 09:51:22;;;;;;;3.33;1.10;;;25.60;98.20;;;25.90;100.00;97518.06;5060124;28;20075;-78
2023/06/29 09:53:49;;;;;;;3.42;0.98;;;25.80;97.90;;;25.76;100.00;97515.00;5038377;28;20374;-78
2023/06/29 09:56:19;;;;;;;7.47;1.33;;;25.90;97.50;;;26.36;100.00;97507.78;5053881;28;20068;-77
2023/06/29 09:58:47;;;;;;;3.95;1.27;;;26.10;97.00;;;26.13;100.00;97513.75;5075637;28;20055;-79
2023/06/29 10:01:17;;;;;;;5.15;1.38;;;26.10;97.30;;;25.93;100.00;97507.91;5052781;28;20045;-78
2023/06/29 10:03:45;;;;;;;4.18;1.10;;;26.10;97.30;;;26.15;100.00;97503.78;5052006;28;20091;-78
2023/06/29 10:06:19;;;;;;;8.63;1.30;;;26.20;97.10;;;26.52;100.00;97502.44;5053772;28;20049;-79
2023/06/29 10:08:54;;;;;;;3.80;0.98;;;26.40;97.00;;;27.04;100.00;97504.69;5050338;28;20060;-79
2023/06/29 10:11:27;;;;;;;2.70;1.13;;;26.80;97.10;;;27.30;100.00;97504.50;5052267;28;20080;-76
2023/06/29 10:14:00;;;;;;;5.63;1.20;;;27.20;96.30;;;27.73;100.00;97504.94;5050630;28;20049;-78
2023/06/29 10:16:35;;;;;;;3.47;1.38;;;27.40;96.90;;;26.76;100.00;97509.59;5057090;28;20052;-79
2023/06/29 10:19:22;;;;;;;3.22;1.17;;;27.30;97.20;;;26.90;100.00;97511.56;5044730;28;20051;-79